createdAt,value
2022-12-31T00:00:04.919Z,100242.91
2022-12-31T00:02:31.750Z,100241.00
2022-12-31T00:04:58.254Z,100251.03
2022-12-31T00:07:24.895Z,100253.19
2022-12-31T00:09:51.290Z,100240.69
2022-12-31T00:12:17.769Z,100246.13
2022-12-31T00:14:44.289Z,100235.28
2022-12-31T00:17:10.736Z,100239.38
2022-12-31T00:19:37.386Z,100232.31
2022-12-31T00:22:03.949Z,100249.44
2022-12-31T00:24:31.042Z,100246.19
2022-12-31T00:26:57.578Z,100249.72
2022-12-31T00:29:24.042Z,100255.69
2022-12-31T00:31:50.499Z,100251.09
2022-12-31T00:34:16.934Z,100259.81
2022-12-31T00:36:45.852Z,100250.63
2022-12-31T00:39:12.771Z,100252.81
2022-12-31T00:41:39.832Z,100253.63
2022-12-31T00:44:06.463Z,100259.88
2022-12-31T00:46:33.000Z,100258.75
2022-12-31T00:48:59.476Z,100261.72
2022-12-31T00:51:27.670Z,100267.13
2022-12-31T00:53:55.759Z,100264.66
2022-12-31T00:56:24.942Z,100273.84
2022-12-31T00:58:51.681Z,100270.56
2022-12-31T01:01:27.025Z,100265.66
2022-12-31T01:03:57.991Z,100273.22
2022-12-31T01:06:24.831Z,100262.38
2022-12-31T01:08:52.334Z,100260.75
2022-12-31T01:11:19.517Z,100262.66
2022-12-31T01:13:48.562Z,100257.47
2022-12-31T01:16:16.692Z,100272.09
2022-12-31T01:18:43.173Z,100268.81
2022-12-31T01:21:11.861Z,100267.16
2022-12-31T01:23:38.672Z,100269.31
2022-12-31T01:26:07.665Z,100268.22
2022-12-31T01:28:34.394Z,100271.44
2022-12-31T01:31:06.479Z,100264.88
2022-12-31T01:33:33.480Z,100268.69
2022-12-31T01:36:08.867Z,100263.50
2022-12-31T01:38:36.025Z,100270.81
2022-12-31T01:41:03.274Z,100277.56
2022-12-31T01:43:54.401Z,100271.53
2022-12-31T01:46:31.205Z,100271.53
2022-12-31T01:49:00.035Z,100276.66
2022-12-31T01:51:30.246Z,100281.50
2022-12-31T01:53:58.576Z,100276.06
2022-12-31T01:56:25.914Z,100281.50
2022-12-31T01:58:56.563Z,100274.44
2022-12-31T02:01:30.580Z,100284.47
2022-12-31T02:03:57.818Z,100292.84
2022-12-31T02:06:34.974Z,100299.31
2022-12-31T02:09:01.590Z,100296.63
2022-12-31T02:11:36.428Z,100289.56
2022-12-31T02:14:09.589Z,100276.53
2022-12-31T02:16:40.044Z,100266.75
2022-12-31T02:19:26.785Z,100263.22
2022-12-31T02:22:26.959Z,100258.03
2022-12-31T02:25:15.420Z,100265.59
2022-12-31T02:27:44.887Z,100264.19
2022-12-31T02:30:18.494Z,100263.63
2022-12-31T02:33:32.662Z,100247.63
2022-12-31T02:36:04.055Z,100228.91
2022-12-31T02:38:39.290Z,100231.88
2022-12-31T02:41:05.933Z,100231.06
2022-12-31T02:43:32.367Z,100243.78
2022-12-31T02:46:33.094Z,100232.59
2022-12-31T02:49:16.062Z,100226.38
2022-12-31T02:52:00.237Z,100235.56
2022-12-31T02:55:05.183Z,100250.44
2022-12-31T02:57:58.869Z,100264.22
2022-12-31T03:00:43.920Z,100270.69
2022-12-31T03:03:11.649Z,100280.72
2022-12-31T03:05:42.236Z,100282.03
2022-12-31T03:08:09.377Z,100285.00
2022-12-31T03:10:36.332Z,100293.34
2022-12-31T03:13:02.810Z,100299.25
2022-12-31T03:15:33.930Z,100292.19
2022-12-31T03:18:00.278Z,100295.13
2022-12-31T03:20:52.619Z,100293.75
2022-12-31T03:23:25.684Z,100298.59
2022-12-31T03:25:53.330Z,100296.13
2022-12-31T03:28:22.954Z,100297.44
2022-12-31T03:30:52.301Z,100301.22
2022-12-31T03:33:19.538Z,100305.00
2022-12-31T03:35:47.652Z,100293.00
2022-12-31T03:38:15.520Z,100293.00
2022-12-31T03:40:45.538Z,100295.13
2022-12-31T03:43:11.978Z,100302.69
2022-12-31T03:45:39.174Z,100285.63
2022-12-31T03:48:07.862Z,100285.88
2022-12-31T03:50:35.566Z,100290.47
2022-12-31T03:53:02.334Z,100276.59
2022-12-31T03:55:28.774Z,100282.84
2022-12-31T03:57:55.156Z,100280.63
2022-12-31T04:00:22.291Z,100284.16
2022-12-31T04:02:49.541Z,100288.97
2022-12-31T04:05:17.257Z,100287.31
2022-12-31T04:07:43.907Z,100281.31
2022-12-31T04:10:12.725Z,100273.72
2022-12-31T04:12:39.212Z,100277.47
2022-12-31T04:15:07.108Z,100269.59
2022-12-31T04:17:33.594Z,100260.09
2022-12-31T04:20:00.138Z,100266.56
2022-12-31T04:22:26.873Z,100257.88
2022-12-31T04:24:53.340Z,100252.69
2022-12-31T04:27:19.749Z,100238.59
2022-12-31T04:29:46.170Z,100245.88
2022-12-31T04:32:12.624Z,100225.53
2022-12-31T04:34:39.079Z,100243.88
2022-12-31T04:37:05.568Z,100248.47
2022-12-31T04:39:32.203Z,100252.25
2022-12-31T04:41:58.672Z,100258.72
2022-12-31T04:44:25.080Z,100268.47
2022-12-31T04:46:51.557Z,100264.72
2022-12-31T04:49:18.064Z,100256.03
2022-12-31T04:51:44.520Z,100262.25
2022-12-31T04:54:10.942Z,100267.91
2022-12-31T04:56:37.372Z,100264.72
2022-12-31T04:59:04.808Z,100264.72
2022-12-31T05:01:31.595Z,100264.72
2022-12-31T05:03:58.653Z,100266.34
2022-12-31T05:06:25.113Z,100260.94
2022-12-31T05:08:51.791Z,100267.16
2022-12-31T05:11:18.428Z,100255.78
2022-12-31T05:13:45.043Z,100281.19
2022-12-31T05:16:11.716Z,100260.38
2022-12-31T05:18:38.354Z,100255.53
2022-12-31T05:21:05.331Z,100262.56
2022-12-31T05:23:31.791Z,100274.22
2022-12-31T05:25:59.565Z,100261.50
2022-12-31T05:28:26.418Z,100264.56
2022-12-31T05:30:53.117Z,100264.69
2022-12-31T05:33:19.683Z,100263.38
2022-12-31T05:35:46.176Z,100276.41
2022-12-31T05:38:12.602Z,100268.88
2022-12-31T05:40:39.081Z,100282.97
2022-12-31T05:43:05.523Z,100284.16
2022-12-31T05:45:31.916Z,100281.53
2022-12-31T05:47:58.420Z,100278.88
2022-12-31T05:50:24.992Z,100280.53
2022-12-31T05:52:56.265Z,100286.63
2022-12-31T05:55:23.114Z,100273.16
2022-12-31T05:57:49.524Z,100277.25
2022-12-31T06:00:16.562Z,100279.72
2022-12-31T06:02:44.728Z,100282.53
2022-12-31T06:05:12.142Z,100274.72
2022-12-31T06:07:38.664Z,100277.75
2022-12-31T06:10:05.686Z,100279.41
2022-12-31T06:12:32.152Z,100276.75
2022-12-31T06:14:58.544Z,100278.44
2022-12-31T06:17:25.020Z,100283.34
2022-12-31T06:19:51.534Z,100279.56
2022-12-31T06:22:18.045Z,100289.31
2022-12-31T06:24:44.484Z,100292.84
2022-12-31T06:27:10.954Z,100282.59
2022-12-31T06:29:37.430Z,100281.78
2022-12-31T06:32:04.070Z,100282.34
2022-12-31T06:34:30.509Z,100283.97
2022-12-31T06:36:59.123Z,100283.47
2022-12-31T06:39:25.738Z,100301.97
2022-12-31T06:41:52.185Z,100306.06
2022-12-31T06:44:18.881Z,100301.22
2022-12-31T06:46:45.505Z,100304.81
2022-12-31T06:49:12.147Z,100313.09
2022-12-31T06:51:38.598Z,100312.84
2022-12-31T06:54:05.155Z,100309.38
2022-12-31T06:56:34.851Z,100314.09
2022-12-31T06:59:02.868Z,100319.31
2022-12-31T07:01:58.675Z,100326.94
2022-12-31T07:04:43.710Z,100305.31
2022-12-31T07:07:42.925Z,100301.63
2022-12-31T07:10:37.163Z,100288.44
2022-12-31T07:13:28.170Z,100305.66
2022-12-31T07:16:22.085Z,100300.97
2022-12-31T07:19:28.707Z,100298.03
2022-12-31T07:21:58.347Z,100288.13
2022-12-31T07:24:25.244Z,100281.09
2022-12-31T07:27:20.813Z,100292.53
2022-12-31T07:30:01.662Z,100300.75
2022-12-31T07:32:43.613Z,100287.72
2022-12-31T07:35:29.725Z,100311.13
2022-12-31T07:38:43.994Z,100294.88
2022-12-31T07:41:35.070Z,100311.50
2022-12-31T07:44:24.823Z,100316.41
2022-12-31T07:46:57.149Z,100310.47
2022-12-31T07:49:25.877Z,100317.28
2022-12-31T07:51:52.925Z,100321.63
2022-12-31T07:54:20.018Z,100301.53
2022-12-31T07:56:47.214Z,100320.88
2022-12-31T07:59:40.557Z,100328.81
2022-12-31T08:02:14.397Z,100329.88
2022-12-31T08:05:00.345Z,100329.91
2022-12-31T08:07:59.175Z,100330.25
2022-12-31T08:10:41.850Z,100333.53
2022-12-31T08:13:12.212Z,100329.72
2022-12-31T08:15:39.384Z,100340.91
2022-12-31T08:18:06.807Z,100335.19
2022-12-31T08:20:36.204Z,100338.22
2022-12-31T08:23:24.720Z,100336.03
2022-12-31T08:26:18.548Z,100333.31
2022-12-31T08:29:06.352Z,100337.09
2022-12-31T08:31:48.096Z,100347.16
2022-12-31T08:34:39.742Z,100349.56
2022-12-31T08:37:17.069Z,100367.50
2022-12-31T08:39:49.927Z,100388.09
2022-12-31T08:42:29.944Z,100398.38
2022-12-31T08:45:14.076Z,100401.88
2022-12-31T08:47:49.441Z,100397.22
2022-12-31T08:50:18.503Z,100410.47
2022-12-31T08:52:46.257Z,100410.75
2022-12-31T08:55:15.306Z,100418.03
2022-12-31T08:57:47.614Z,100421.25
2022-12-31T09:00:16.959Z,100437.81
2022-12-31T09:03:10.755Z,100441.59
2022-12-31T09:05:46.155Z,100447.03
2022-12-31T09:08:27.977Z,100448.66
2022-12-31T09:11:09.605Z,100453.84
2022-12-31T09:14:13.379Z,100465.53
2022-12-31T09:16:46.585Z,100454.66
2022-12-31T09:19:13.151Z,100468.81
2022-12-31T09:21:44.198Z,100478.13
2022-12-31T09:24:14.736Z,100466.22
2022-12-31T09:26:46.372Z,100470.31
2022-12-31T09:29:27.747Z,100458.47
2022-12-31T09:32:24.126Z,100470.75
2022-12-31T09:35:03.961Z,100469.50
2022-12-31T09:37:47.517Z,100469.25
2022-12-31T09:40:34.038Z,100465.44
2022-12-31T09:43:26.318Z,100464.09
2022-12-31T09:46:27.626Z,100469.84
2022-12-31T09:49:18.750Z,100471.78
2022-12-31T09:51:54.286Z,100473.25
2022-12-31T09:54:47.343Z,100483.91
2022-12-31T09:57:27.849Z,100473.91
2022-12-31T10:00:16.381Z,100478.34
2022-12-31T10:03:27.036Z,100480.88
2022-12-31T10:06:12.176Z,100486.09
2022-12-31T10:09:05.443Z,100478.59
2022-12-31T10:11:59.700Z,100475.63
2022-12-31T10:14:47.802Z,100465.66
2022-12-31T10:17:54.562Z,100460.88
2022-12-31T10:20:48.313Z,100474.88
2022-12-31T10:23:22.654Z,100473.53
2022-12-31T10:26:16.246Z,100477.88
2022-12-31T10:28:49.528Z,100483.34
2022-12-31T10:31:30.107Z,100471.63
2022-12-31T10:34:23.552Z,100487.69
2022-12-31T10:37:06.036Z,100482.00
2022-12-31T10:40:17.144Z,100489.91
2022-12-31T10:43:21.577Z,100493.19
2022-12-31T10:46:05.607Z,100473.59
2022-12-31T10:48:48.462Z,100471.41
2022-12-31T10:51:53.801Z,100486.66
2022-12-31T10:54:38.459Z,100466.81
2022-12-31T10:57:32.723Z,100464.91
2022-12-31T11:00:09.395Z,100463.56
2022-12-31T11:02:38.802Z,100479.34
2022-12-31T11:05:24.209Z,100461.16
2022-12-31T11:08:06.603Z,100471.50
2022-12-31T11:11:11.467Z,100488.13
2022-12-31T11:13:46.829Z,100484.81
2022-12-31T11:16:39.577Z,100486.69
2022-12-31T11:19:14.863Z,100488.84
2022-12-31T11:21:57.282Z,100492.63
2022-12-31T11:24:26.670Z,100464.28
2022-12-31T11:27:03.770Z,100478.97
2022-12-31T11:30:03.892Z,100468.03
2022-12-31T11:32:42.501Z,100476.72
2022-12-31T11:35:23.186Z,100471.25
2022-12-31T11:38:21.048Z,100491.91
2022-12-31T11:41:08.164Z,100487.84
2022-12-31T11:43:35.511Z,100474.22
2022-12-31T11:46:08.204Z,100493.03
2022-12-31T11:49:12.486Z,100484.41
2022-12-31T11:51:58.095Z,100482.00
2022-12-31T11:54:53.108Z,100492.09
2022-12-31T11:57:31.755Z,100483.75
2022-12-31T12:00:03.752Z,100493.88
2022-12-31T12:02:44.181Z,100485.75
2022-12-31T12:05:15.005Z,100496.69
2022-12-31T12:07:41.450Z,100487.47
2022-12-31T12:10:22.086Z,100484.75
2022-12-31T12:12:48.917Z,100486.94
2022-12-31T12:15:32.752Z,100471.69
2022-12-31T12:18:07.905Z,100478.78
2022-12-31T12:20:38.373Z,100480.66
2022-12-31T12:23:21.847Z,100467.81
2022-12-31T12:25:48.247Z,100471.34
2022-12-31T12:28:19.108Z,100482.47
2022-12-31T12:30:52.658Z,100475.94
2022-12-31T12:33:20.853Z,100467.75
2022-12-31T12:35:47.536Z,100472.69
2022-12-31T12:38:22.798Z,100466.69
2022-12-31T12:40:57.913Z,100478.66
2022-12-31T12:43:33.226Z,100461.22
2022-12-31T12:46:04.032Z,100466.13
2022-12-31T12:48:46.271Z,100468.31
2022-12-31T12:51:41.880Z,100473.50
2022-12-31T12:54:16.853Z,100476.75
2022-12-31T12:57:07.933Z,100472.09
2022-12-31T13:00:00.903Z,100466.94
2022-12-31T13:03:08.781Z,100499.63
2022-12-31T13:05:55.227Z,100509.72
2022-12-31T13:08:36.398Z,100495.53
2022-12-31T13:11:39.027Z,100493.88
2022-12-31T13:14:42.900Z,100504.25
2022-12-31T13:17:52.715Z,100509.16
2022-12-31T13:20:47.357Z,100505.06
2022-12-31T13:23:17.944Z,100510.22
2022-12-31T13:25:56.674Z,100509.94
2022-12-31T13:28:25.195Z,100504.75
2022-12-31T13:31:03.234Z,100512.91
2022-12-31T13:33:37.397Z,100504.69
2022-12-31T13:36:07.765Z,100507.13
2022-12-31T13:38:41.912Z,100510.63
2022-12-31T13:41:32.769Z,100512.25
2022-12-31T13:44:04.911Z,100524.72
2022-12-31T13:46:48.881Z,100519.28
2022-12-31T13:49:29.593Z,100514.38
2022-12-31T13:52:14.358Z,100508.91
2022-12-31T13:54:52.677Z,100512.44
2022-12-31T13:57:42.168Z,100530.41
2022-12-31T14:00:25.259Z,100519.22
2022-12-31T14:03:03.791Z,100525.22
2022-12-31T14:05:42.615Z,100516.53
2022-12-31T14:08:09.824Z,100514.88
2022-12-31T14:10:36.187Z,100520.88
2022-12-31T14:13:14.548Z,100513.00
2022-12-31T14:16:02.253Z,100517.13
2022-12-31T14:18:37.785Z,100502.72
2022-12-31T14:21:29.296Z,100490.75
2022-12-31T14:24:20.499Z,100494.84
2022-12-31T14:26:53.306Z,100521.00
2022-12-31T14:29:37.917Z,100525.41
2022-12-31T14:32:13.015Z,100525.91
2022-12-31T14:34:49.863Z,100538.69
2022-12-31T14:37:30.320Z,100554.66
2022-12-31T14:40:19.617Z,100551.38
2022-12-31T14:43:04.922Z,100540.47
2022-12-31T14:46:02.713Z,100546.19
2022-12-31T14:48:51.768Z,100549.72
2022-12-31T14:51:18.314Z,100548.09
2022-12-31T14:53:53.148Z,100540.47
2022-12-31T14:56:42.549Z,100545.66
2022-12-31T14:59:28.623Z,100560.34
2022-12-31T15:01:56.813Z,100567.13
2022-12-31T15:04:46.817Z,100559.22
2022-12-31T15:07:34.187Z,100565.75
2022-12-31T15:10:12.729Z,100571.13
2022-12-31T15:12:46.655Z,100568.75
2022-12-31T15:15:42.385Z,100567.13
2022-12-31T15:18:48.449Z,100552.72
2022-12-31T15:21:39.413Z,100549.75
2022-12-31T15:24:21.244Z,100550.38
2022-12-31T15:27:00.310Z,100545.47
2022-12-31T15:29:30.880Z,100554.47
2022-12-31T15:31:59.880Z,100552.03
2022-12-31T15:34:37.343Z,100558.59
2022-12-31T15:37:07.300Z,100541.75
2022-12-31T15:39:40.974Z,100526.50
2022-12-31T15:42:45.763Z,100532.53
2022-12-31T15:45:25.206Z,100514.03
2022-12-31T15:47:58.136Z,100535.31
2022-12-31T15:50:25.755Z,100528.78
2022-12-31T15:52:55.230Z,100535.94
2022-12-31T15:55:37.811Z,100539.19
2022-12-31T15:58:11.191Z,100535.16
2022-12-31T16:00:43.950Z,100540.88
2022-12-31T16:03:22.266Z,100539.19
2022-12-31T16:05:49.131Z,100542.78
2022-12-31T16:08:21.663Z,100543.88
2022-12-31T16:10:48.496Z,100540.63
2022-12-31T16:13:21.722Z,100537.88
2022-12-31T16:15:51.801Z,100543.34
2022-12-31T16:18:22.767Z,100551.78
2022-12-31T16:20:51.627Z,100541.16
2022-12-31T16:23:27.424Z,100538.19
2022-12-31T16:25:58.396Z,100534.34
2022-12-31T16:28:30.316Z,100520.19
2022-12-31T16:31:04.105Z,100515.84
2022-12-31T16:33:31.601Z,100517.75
2022-12-31T16:36:00.832Z,100519.66
2022-12-31T16:38:35.852Z,100523.47
2022-12-31T16:41:02.214Z,100528.91
2022-12-31T16:43:39.999Z,100519.91
2022-12-31T16:46:20.367Z,100519.66
2022-12-31T16:48:49.570Z,100507.66
2022-12-31T16:51:21.060Z,100518.06
2022-12-31T16:53:49.095Z,100518.00
2022-12-31T16:56:37.246Z,100519.38
2022-12-31T16:59:08.334Z,100513.63
2022-12-31T17:01:37.435Z,100517.44
2022-12-31T17:04:11.470Z,100520.72
2022-12-31T17:06:37.989Z,100512.00
2022-12-31T17:09:14.365Z,100507.91
2022-12-31T17:11:52.654Z,100511.41
2022-12-31T17:14:23.126Z,100518.75
2022-12-31T17:17:02.110Z,100521.16
2022-12-31T17:19:36.431Z,100520.06
2022-12-31T17:22:04.857Z,100515.16
2022-12-31T17:24:31.574Z,100512.44
2022-12-31T17:27:04.974Z,100501.53
2022-12-31T17:29:32.153Z,100511.63
2022-12-31T17:32:07.560Z,100510.81
2022-12-31T17:34:47.244Z,100510.31
2022-12-31T17:37:30.531Z,100503.22
2022-12-31T17:40:17.380Z,100495.00
2022-12-31T17:42:47.831Z,100500.44
2022-12-31T17:45:21.994Z,100491.19
2022-12-31T17:47:52.320Z,100508.06
2022-12-31T17:50:22.071Z,100506.44
2022-12-31T17:52:49.079Z,100499.38
2022-12-31T17:55:16.066Z,100510.81
2022-12-31T17:57:52.152Z,100520.59
2022-12-31T18:00:21.353Z,100515.44
2022-12-31T18:02:48.309Z,100517.91
2022-12-31T18:05:16.687Z,100518.97
2022-12-31T18:07:43.197Z,100505.94
2022-12-31T18:10:09.999Z,100518.75
2022-12-31T18:12:36.915Z,100517.38
2022-12-31T18:15:03.865Z,100521.19
2022-12-31T18:17:30.263Z,100522.56
2022-12-31T18:20:05.306Z,100513.56
2022-12-31T18:22:32.828Z,100511.94
2022-12-31T18:24:59.278Z,100514.13
2022-12-31T18:27:25.837Z,100511.97
2022-12-31T18:29:52.369Z,100503.78
2022-12-31T18:32:20.886Z,100513.03
2022-12-31T18:34:47.652Z,100498.91
2022-12-31T18:37:21.269Z,100514.19
2022-12-31T18:39:48.423Z,100503.53
2022-12-31T18:42:17.413Z,100518.00
2022-12-31T18:44:44.951Z,100516.91
2022-12-31T18:47:16.799Z,100521.00
2022-12-31T18:49:44.816Z,100520.72
2022-12-31T18:52:22.726Z,100516.91
2022-12-31T18:54:49.483Z,100509.00
2022-12-31T18:57:16.107Z,100522.38
2022-12-31T18:59:42.762Z,100513.63
2022-12-31T19:02:19.332Z,100519.09
2022-12-31T19:04:45.940Z,100521.00
2022-12-31T19:07:12.681Z,100530.78
2022-12-31T19:09:48.322Z,100539.25
2022-12-31T19:12:16.790Z,100544.16
2022-12-31T19:14:43.280Z,100534.09
2022-12-31T19:19:35.167Z,100531.91
2022-12-31T19:22:02.507Z,100545.81
2022-12-31T19:24:28.990Z,100542.59
2022-12-31T19:26:55.393Z,100537.41
2022-12-31T19:29:27.179Z,100558.13
2022-12-31T19:31:54.130Z,100536.03
2022-12-31T19:34:20.926Z,100546.94
2022-12-31T19:36:47.563Z,100535.50
2022-12-31T19:39:19.956Z,100541.44
2022-12-31T19:41:51.691Z,100541.16
2022-12-31T19:44:22.822Z,100528.34
2022-12-31T19:46:49.386Z,100534.34
2022-12-31T19:49:16.206Z,100537.59
2022-12-31T19:51:42.646Z,100527.75
2022-12-31T19:54:12.125Z,100541.91
2022-12-31T19:56:38.692Z,100548.94
2022-12-31T19:59:09.694Z,100547.84
2022-12-31T20:01:36.218Z,100553.06
2022-12-31T20:04:02.689Z,100554.41
2022-12-31T20:06:29.155Z,100550.59
2022-12-31T20:08:55.679Z,100556.28
2022-12-31T20:11:23.970Z,100564.19
2022-12-31T20:13:54.856Z,100563.66
2022-12-31T20:16:24.362Z,100563.66
2022-12-31T20:18:51.104Z,100552.75
2022-12-31T20:21:21.138Z,100557.94
2022-12-31T20:23:49.230Z,100574.28
2022-12-31T20:26:16.436Z,100556.88
2022-12-31T20:28:43.235Z,100580.59
2022-12-31T20:31:12.711Z,100571.59
2022-12-31T20:33:39.443Z,100566.97
2022-12-31T20:36:07.946Z,100574.63
2022-12-31T20:38:34.707Z,100573.25
2022-12-31T20:41:05.097Z,100568.59
2022-12-31T20:43:33.373Z,100572.44
2022-12-31T20:46:00.253Z,100571.34
2022-12-31T20:48:26.746Z,100569.69
2022-12-31T20:50:57.028Z,100572.38
2022-12-31T20:53:23.694Z,100579.50
2022-12-31T20:55:50.548Z,100580.34
2022-12-31T20:58:17.212Z,100574.59
2022-12-31T21:00:50.880Z,100586.03
2022-12-31T21:04:02.435Z,100579.56
2022-12-31T21:06:07.670Z,100573.88
2022-12-31T21:08:35.133Z,100580.38
2022-12-31T21:11:02.480Z,100585.59
2022-12-31T21:13:28.950Z,100582.31
2022-12-31T21:15:55.665Z,100588.31
2022-12-31T21:18:22.905Z,100580.75
2022-12-31T21:20:51.494Z,100587.84
2022-12-31T21:23:19.604Z,100580.47
2022-12-31T21:25:49.793Z,100592.75
2022-12-31T21:28:16.149Z,100594.38
2022-12-31T21:30:43.556Z,100589.75
2022-12-31T21:33:10.070Z,100610.16
2022-12-31T21:35:50.108Z,100607.97
2022-12-31T21:38:19.913Z,100612.28
2022-12-31T21:40:46.827Z,100619.63
2022-12-31T21:43:13.989Z,100626.44
2022-12-31T21:45:40.493Z,100631.59
2022-12-31T21:48:19.812Z,100631.31
2022-12-31T21:50:51.117Z,100621.81
2022-12-31T21:53:24.164Z,100627.00
2022-12-31T21:56:11.391Z,100622.66
2022-12-31T21:58:43.470Z,100616.66
2022-12-31T22:01:35.878Z,100620.47
2022-12-31T22:04:02.959Z,100629.47
2022-12-31T22:06:30.060Z,100629.47
2022-12-31T22:08:56.952Z,100636.28
2022-12-31T22:11:26.061Z,100638.72
2022-12-31T22:13:53.353Z,100625.91
2022-12-31T22:16:20.934Z,100625.38
2022-12-31T22:18:47.868Z,100622.38
2022-12-31T22:21:20.544Z,100622.69
2022-12-31T22:23:53.267Z,100622.38
2022-12-31T22:26:23.353Z,100633.59
2022-12-31T22:28:50.379Z,100623.75
2022-12-31T22:31:22.991Z,100629.78
2022-12-31T22:33:50.133Z,100634.97
2022-12-31T22:36:19.940Z,100638.78
2022-12-31T22:38:47.123Z,100640.91
2022-12-31T22:41:24.326Z,100618.00
2022-12-31T22:44:02.269Z,100617.25
2022-12-31T22:46:30.038Z,100619.97
2022-12-31T22:48:58.680Z,100633.06
2022-12-31T22:51:29.210Z,100646.97
2022-12-31T22:54:12.446Z,100637.97
2022-12-31T22:56:39.024Z,100649.44
2022-12-31T22:59:05.657Z,100659.78
2022-12-31T23:01:32.439Z,100644.53
2022-12-31T23:03:59.057Z,100652.16
2022-12-31T23:06:25.702Z,100650.78
2022-12-31T23:09:11.612Z,100659.22
2022-12-31T23:11:39.324Z,100643.91
2022-12-31T23:14:26.405Z,100640.06
2022-12-31T23:17:29.449Z,100653.44
2022-12-31T23:20:17.044Z,100658.59
2022-12-31T23:23:01.909Z,100658.59
2022-12-31T23:25:31.852Z,100679.03
2022-12-31T23:27:58.571Z,100683.13
2022-12-31T23:30:25.031Z,100666.25
2022-12-31T23:32:51.453Z,100685.59
2022-12-31T23:35:17.974Z,100669.25
2022-12-31T23:37:44.420Z,100691.88
2022-12-31T23:40:17.232Z,100682.94
2022-12-31T23:42:47.264Z,100678.56
2022-12-31T23:45:13.666Z,100678.31
2022-12-31T23:47:40.134Z,100672.56
2022-12-31T23:50:07.260Z,100688.91
2022-12-31T23:52:33.644Z,100691.94
2022-12-31T23:55:00.022Z,100680.16
2022-12-31T23:57:26.475Z,100694.88
2022-12-31T23:59:52.925Z,100694.59
